sensor_id;sensor_type;location;lat;lon;timestamp;P1;durP1;ratioP1;P2;durP2;ratioP2
9409;SDS011;4744;52.576;13.568;2022-10-31T00:01:24;13.00;;;11.75;;
9409;SDS011;4744;52.576;13.568;2022-10-31T00:03:53;13.68;;;12.38;;
9409;SDS011;4744;52.576;13.568;2022-10-31T00:06:20;12.98;;;11.52;;
9409;SDS011;4744;52.576;13.568;2022-10-31T00:08:47;12.80;;;11.60;;
9409;SDS011;4744;52.576;13.568;2022-10-31T00:11:18;14.43;;;12.75;;
9409;SDS011;4744;52.576;13.568;2022-10-31T00:13:45;13.68;;;12.23;;
9409;SDS011;4744;52.576;13.568;2022-10-31T00:16:16;15.20;;;13.15;;
9409;SDS011;4744;52.576;13.568;2022-10-31T00:18:47;14.38;;;12.88;;
9409;SDS011;4744;52.576;13.568;2022-10-31T00:21:14;13.00;;;11.70;;
9409;SDS011;4744;52.576;13.568;2022-10-31T00:23:41;13.73;;;12.32;;
9409;SDS011;4744;52.576;13.568;2022-10-31T00:26:08;13.73;;;12.00;;
9409;SDS011;4744;52.576;13.568;2022-10-31T00:28:34;15.63;;;12.32;;
9409;SDS011;4744;52.576;13.568;2022-10-31T00:31:02;14.10;;;12.60;;
9409;SDS011;4744;52.576;13.568;2022-10-31T00:33:32;15.75;;;13.23;;
9409;SDS011;4744;52.576;13.568;2022-10-31T00:36:00;15.07;;;13.52;;
9409;SDS011;4744;52.576;13.568;2022-10-31T00:38:27;17.95;;;13.82;;
9409;SDS011;4744;52.576;13.568;2022-10-31T00:40:54;16.90;;;13.45;;
9409;SDS011;4744;52.576;13.568;2022-10-31T00:43:21;16.17;;;13.95;;
9409;SDS011;4744;52.576;13.568;2022-10-31T00:45:47;14.95;;;12.70;;
9409;SDS011;4744;52.576;13.568;2022-10-31T00:48:14;13.88;;;12.07;;
9409;SDS011;4744;52.576;13.568;2022-10-31T00:50:45;17.38;;;13.88;;
9409;SDS011;4744;52.576;13.568;2022-10-31T00:53:15;13.98;;;12.32;;
9409;SDS011;4744;52.576;13.568;2022-10-31T00:55:42;14.45;;;12.15;;
9409;SDS011;4744;52.576;13.568;2022-10-31T00:58:08;19.23;;;14.27;;
9409;SDS011;4744;52.576;13.568;2022-10-31T01:00:35;16.35;;;13.85;;
9409;SDS011;4744;52.576;13.568;2022-10-31T01:03:02;19.65;;;15.48;;
9409;SDS011;4744;52.576;13.568;2022-10-31T01:05:29;24.45;;;16.77;;
9409;SDS011;4744;52.576;13.568;2022-10-31T01:07:57;21.60;;;15.63;;
9409;SDS011;4744;52.576;13.568;2022-10-31T01:10:24;17.33;;;14.48;;
9409;SDS011;4744;52.576;13.568;2022-10-31T01:12:51;17.30;;;12.75;;
9409;SDS011;4744;52.576;13.568;2022-10-31T01:15:19;20.80;;;14.82;;
9409;SDS011;4744;52.576;13.568;2022-10-31T01:17:47;17.10;;;13.15;;
9409;SDS011;4744;52.576;13.568;2022-10-31T01:20:15;14.98;;;12.93;;
9409;SDS011;4744;52.576;13.568;2022-10-31T01:22:42;14.32;;;12.38;;
9409;SDS011;4744;52.576;13.568;2022-10-31T01:25:10;14.00;;;11.80;;
9409;SDS011;4744;52.576;13.568;2022-10-31T01:27:37;13.50;;;12.10;;
9409;SDS011;4744;52.576;13.568;2022-10-31T01:30:04;14.40;;;12.90;;
9409;SDS011;4744;52.576;13.568;2022-10-31T01:32:32;13.68;;;11.20;;
9409;SDS011;4744;52.576;13.568;2022-10-31T01:34:59;12.18;;;10.98;;
9409;SDS011;4744;52.576;13.568;2022-10-31T01:37:25;11.80;;;10.65;;
9409;SDS011;4744;52.576;13.568;2022-10-31T01:39:52;13.15;;;11.35;;
9409;SDS011;4744;52.576;13.568;2022-10-31T01:42:21;13.38;;;11.98;;
9409;SDS011;4744;52.576;13.568;2022-10-31T01:44:56;12.13;;;11.02;;
9409;SDS011;4744;52.576;13.568;2022-10-31T01:47:32;13.88;;;11.30;;
9409;SDS011;4744;52.576;13.568;2022-10-31T01:50:05;16.42;;;11.98;;
9409;SDS011;4744;52.576;13.568;2022-10-31T01:52:37;13.50;;;11.40;;
9409;SDS011;4744;52.576;13.568;2022-10-31T01:55:07;13.80;;;11.98;;
9409;SDS011;4744;52.576;13.568;2022-10-31T01:57:40;12.38;;;10.88;;
9409;SDS011;4744;52.576;13.568;2022-10-31T02:00:11;14.80;;;12.05;;
9409;SDS011;4744;52.576;13.568;2022-10-31T02:02:39;12.32;;;10.98;;
9409;SDS011;4744;52.576;13.568;2022-10-31T02:05:08;14.13;;;11.48;;
9409;SDS011;4744;52.576;13.568;2022-10-31T02:07:38;12.27;;;10.98;;
9409;SDS011;4744;52.576;13.568;2022-10-31T02:10:09;12.05;;;10.85;;
9409;SDS011;4744;52.576;13.568;2022-10-31T02:12:36;11.50;;;10.40;;
9409;SDS011;4744;52.576;13.568;2022-10-31T02:15:06;11.75;;;10.50;;
9409;SDS011;4744;52.576;13.568;2022-10-31T02:17:34;11.20;;;10.10;;
9409;SDS011;4744;52.576;13.568;2022-10-31T02:20:04;11.98;;;10.70;;
9409;SDS011;4744;52.576;13.568;2022-10-31T02:22:40;10.95;;;9.85;;
9409;SDS011;4744;52.576;13.568;2022-10-31T02:25:36;10.10;;;9.10;;
9409;SDS011;4744;52.576;13.568;2022-10-31T02:28:22;11.25;;;10.10;;
9409;SDS011;4744;52.576;13.568;2022-10-31T02:31:05;9.68;;;8.77;;
9409;SDS011;4744;52.576;13.568;2022-10-31T02:33:49;10.18;;;9.18;;
9409;SDS011;4744;52.576;13.568;2022-10-31T02:36:21;8.80;;;7.78;;
9409;SDS011;4744;52.576;13.568;2022-10-31T02:38:56;9.05;;;8.15;;
9409;SDS011;4744;52.576;13.568;2022-10-31T02:41:31;9.32;;;8.32;;
9409;SDS011;4744;52.576;13.568;2022-10-31T02:44:05;11.38;;;8.70;;
9409;SDS011;4744;52.576;13.568;2022-10-31T02:46:37;9.27;;;8.38;;
9409;SDS011;4744;52.576;13.568;2022-10-31T02:49:11;10.93;;;8.95;;
9409;SDS011;4744;52.576;13.568;2022-10-31T02:51:43;10.85;;;9.75;;
9409;SDS011;4744;52.576;13.568;2022-10-31T02:54:18;12.07;;;10.52;;
9409;SDS011;4744;52.576;13.568;2022-10-31T02:56:46;11.65;;;10.43;;
9409;SDS011;4744;52.576;13.568;2022-10-31T02:59:15;16.20;;;11.50;;
9409;SDS011;4744;52.576;13.568;2022-10-31T03:01:53;10.95;;;9.85;;
9409;SDS011;4744;52.576;13.568;2022-10-31T03:04:37;10.70;;;9.60;;
9409;SDS011;4744;52.576;13.568;2022-10-31T03:07:17;10.88;;;9.75;;
9409;SDS011;4744;52.576;13.568;2022-10-31T03:09:54;9.25;;;8.35;;
9409;SDS011;4744;52.576;13.568;2022-10-31T03:12:28;8.15;;;7.38;;
9409;SDS011;4744;52.576;13.568;2022-10-31T03:15:01;8.75;;;7.95;;
9409;SDS011;4744;52.576;13.568;2022-10-31T03:17:37;8.10;;;7.47;;
9409;SDS011;4744;52.576;13.568;2022-10-31T03:20:14;8.25;;;7.55;;
9409;SDS011;4744;52.576;13.568;2022-10-31T03:22:43;8.02;;;7.43;;
9409;SDS011;4744;52.576;13.568;2022-10-31T03:25:11;7.90;;;7.20;;
9409;SDS011;4744;52.576;13.568;2022-10-31T03:27:39;11.00;;;8.88;;
9409;SDS011;4744;52.576;13.568;2022-10-31T03:30:08;8.73;;;7.93;;
9409;SDS011;4744;52.576;13.568;2022-10-31T03:32:38;9.30;;;8.50;;
9409;SDS011;4744;52.576;13.568;2022-10-31T03:35:09;8.98;;;8.10;;
9409;SDS011;4744;52.576;13.568;2022-10-31T03:37:39;8.50;;;7.70;;
9409;SDS011;4744;52.576;13.568;2022-10-31T03:40:08;8.88;;;7.97;;
9409;SDS011;4744;52.576;13.568;2022-10-31T03:42:38;10.25;;;8.82;;
9409;SDS011;4744;52.576;13.568;2022-10-31T03:45:08;9.98;;;8.55;;
9409;SDS011;4744;52.576;13.568;2022-10-31T03:47:40;9.40;;;8.55;;
9409;SDS011;4744;52.576;13.568;2022-10-31T03:50:10;9.32;;;8.30;;
9409;SDS011;4744;52.576;13.568;2022-10-31T03:52:40;10.13;;;8.63;;
9409;SDS011;4744;52.576;13.568;2022-10-31T03:55:12;12.98;;;11.57;;
9409;SDS011;4744;52.576;13.568;2022-10-31T03:57:45;12.43;;;11.13;;
9409;SDS011;4744;52.576;13.568;2022-10-31T04:00:17;15.38;;;11.55;;
9409;SDS011;4744;52.576;13.568;2022-10-31T04:02:46;14.70;;;11.10;;
9409;SDS011;4744;52.576;13.568;2022-10-31T04:05:16;14.52;;;11.77;;
9409;SDS011;4744;52.576;13.568;2022-10-31T04:07:45;13.27;;;11.98;;
9409;SDS011;4744;52.576;13.568;2022-10-31T04:10:15;15.00;;;12.32;;
9409;SDS011;4744;52.576;13.568;2022-10-31T04:12:43;13.05;;;11.68;;
9409;SDS011;4744;52.576;13.568;2022-10-31T04:15:15;15.43;;;11.65;;
9409;SDS011;4744;52.576;13.568;2022-10-31T04:17:43;12.27;;;10.95;;
9409;SDS011;4744;52.576;13.568;2022-10-31T04:20:15;14.57;;;11.98;;
9409;SDS011;4744;52.576;13.568;2022-10-31T04:22:42;11.02;;;9.95;;
9409;SDS011;4744;52.576;13.568;2022-10-31T04:25:09;11.27;;;10.07;;
9409;SDS011;4744;52.576;13.568;2022-10-31T04:27:35;12.20;;;11.00;;
9409;SDS011;4744;52.576;13.568;2022-10-31T04:30:02;12.18;;;10.98;;
9409;SDS011;4744;52.576;13.568;2022-10-31T04:32:29;11.57;;;10.40;;
9409;SDS011;4744;52.576;13.568;2022-10-31T04:34:58;11.68;;;10.07;;
9409;SDS011;4744;52.576;13.568;2022-10-31T04:37:24;10.70;;;9.32;;
9409;SDS011;4744;52.576;13.568;2022-10-31T04:39:51;10.88;;;9.77;;
9409;SDS011;4744;52.576;13.568;2022-10-31T04:42:18;10.85;;;9.75;;
9409;SDS011;4744;52.576;13.568;2022-10-31T04:44:45;11.35;;;9.68;;
9409;SDS011;4744;52.576;13.568;2022-10-31T04:47:12;9.93;;;8.93;;
9409;SDS011;4744;52.576;13.568;2022-10-31T04:49:38;10.85;;;9.75;;
9409;SDS011;4744;52.576;13.568;2022-10-31T04:52:06;10.30;;;9.40;;
9409;SDS011;4744;52.576;13.568;2022-10-31T04:54:33;12.57;;;11.38;;
9409;SDS011;4744;52.576;13.568;2022-10-31T04:57:00;11.73;;;10.52;;
9409;SDS011;4744;52.576;13.568;2022-10-31T04:59:27;11.65;;;10.55;;
9409;SDS011;4744;52.576;13.568;2022-10-31T05:01:53;11.82;;;10.43;;
9409;SDS011;4744;52.576;13.568;2022-10-31T05:04:20;11.90;;;10.63;;
9409;SDS011;4744;52.576;13.568;2022-10-31T05:06:47;13.95;;;11.38;;
9409;SDS011;4744;52.576;13.568;2022-10-31T05:09:15;14.07;;;11.77;;
9409;SDS011;4744;52.576;13.568;2022-10-31T05:11:42;12.27;;;11.05;;
9409;SDS011;4744;52.576;13.568;2022-10-31T05:14:09;13.73;;;12.40;;
9409;SDS011;4744;52.576;13.568;2022-10-31T05:16:35;14.20;;;12.70;;
9409;SDS011;4744;52.576;13.568;2022-10-31T05:19:02;13.82;;;11.65;;
9409;SDS011;4744;52.576;13.568;2022-10-31T05:21:29;13.48;;;12.05;;
9409;SDS011;4744;52.576;13.568;2022-10-31T05:23:56;14.48;;;12.32;;
9409;SDS011;4744;52.576;13.568;2022-10-31T05:26:24;12.73;;;11.40;;
9409;SDS011;4744;52.576;13.568;2022-10-31T05:28:51;13.07;;;11.88;;
9409;SDS011;4744;52.576;13.568;2022-10-31T05:31:17;13.73;;;12.32;;
9409;SDS011;4744;52.576;13.568;2022-10-31T05:33:44;13.25;;;11.57;;
9409;SDS011;4744;52.576;13.568;2022-10-31T05:36:11;12.68;;;11.25;;
9409;SDS011;4744;52.576;13.568;2022-10-31T05:38:38;12.95;;;11.65;;
9409;SDS011;4744;52.576;13.568;2022-10-31T05:41:05;14.43;;;11.63;;
9409;SDS011;4744;52.576;13.568;2022-10-31T05:43:33;12.68;;;11.38;;
9409;SDS011;4744;52.576;13.568;2022-10-31T05:45:59;12.60;;;11.30;;
9409;SDS011;4744;52.576;13.568;2022-10-31T05:48:26;11.48;;;10.38;;
9409;SDS011;4744;52.576;13.568;2022-10-31T05:50:53;11.27;;;10.10;;
9409;SDS011;4744;52.576;13.568;2022-10-31T05:53:20;10.85;;;9.82;;
9409;SDS011;4744;52.576;13.568;2022-10-31T05:55:46;10.48;;;9.25;;
9409;SDS011;4744;52.576;13.568;2022-10-31T05:58:13;11.05;;;10.05;;
9409;SDS011;4744;52.576;13.568;2022-10-31T06:00:41;10.90;;;9.80;;
9409;SDS011;4744;52.576;13.568;2022-10-31T06:03:08;11.02;;;9.77;;
9409;SDS011;4744;52.576;13.568;2022-10-31T06:05:35;10.43;;;9.43;;
9409;SDS011;4744;52.576;13.568;2022-10-31T06:08:02;9.75;;;8.85;;
9409;SDS011;4744;52.576;13.568;2022-10-31T06:10:29;9.80;;;8.90;;
9409;SDS011;4744;52.576;13.568;2022-10-31T06:12:56;10.07;;;9.18;;
9409;SDS011;4744;52.576;13.568;2022-10-31T06:15:23;10.05;;;9.15;;
9409;SDS011;4744;52.576;13.568;2022-10-31T06:17:58;15.38;;;10.85;;
9409;SDS011;4744;52.576;13.568;2022-10-31T06:20:25;15.30;;;12.10;;
9409;SDS011;4744;52.576;13.568;2022-10-31T06:22:52;16.80;;;14.15;;
9409;SDS011;4744;52.576;13.568;2022-10-31T06:25:19;17.98;;;13.23;;
9409;SDS011;4744;52.576;13.568;2022-10-31T06:27:46;13.93;;;11.45;;
9409;SDS011;4744;52.576;13.568;2022-10-31T06:30:13;12.52;;;10.02;;
9409;SDS011;4744;52.576;13.568;2022-10-31T06:32:40;11.88;;;10.23;;
9409;SDS011;4744;52.576;13.568;2022-10-31T06:35:08;12.30;;;11.10;;
9409;SDS011;4744;52.576;13.568;2022-10-31T06:37:35;15.15;;;13.23;;
9409;SDS011;4744;52.576;13.568;2022-10-31T06:40:02;17.13;;;12.75;;
9409;SDS011;4744;52.576;13.568;2022-10-31T06:42:29;12.60;;;11.38;;
9409;SDS011;4744;52.576;13.568;2022-10-31T06:44:56;12.18;;;10.50;;
9409;SDS011;4744;52.576;13.568;2022-10-31T06:47:23;12.88;;;11.35;;
9409;SDS011;4744;52.576;13.568;2022-10-31T06:49:50;10.68;;;9.57;;
9409;SDS011;4744;52.576;13.568;2022-10-31T06:52:18;13.68;;;10.93;;
9409;SDS011;4744;52.576;13.568;2022-10-31T06:54:44;20.15;;;14.07;;
9409;SDS011;4744;52.576;13.568;2022-10-31T06:57:11;21.67;;;15.07;;
9409;SDS011;4744;52.576;13.568;2022-10-31T06:59:38;17.60;;;14.02;;
9409;SDS011;4744;52.576;13.568;2022-10-31T07:02:05;19.05;;;14.95;;
9409;SDS011;4744;52.576;13.568;2022-10-31T07:04:33;15.60;;;13.20;;
9409;SDS011;4744;52.576;13.568;2022-10-31T07:07:00;17.10;;;14.25;;
9409;SDS011;4744;52.576;13.568;2022-10-31T07:09:28;14.70;;;11.88;;
9409;SDS011;4744;52.576;13.568;2022-10-31T07:11:55;13.88;;;11.75;;
9409;SDS011;4744;52.576;13.568;2022-10-31T07:14:21;11.32;;;10.23;;
9409;SDS011;4744;52.576;13.568;2022-10-31T07:16:48;18.50;;;13.75;;
9409;SDS011;4744;52.576;13.568;2022-10-31T07:19:16;14.13;;;12.05;;
9409;SDS011;4744;52.576;13.568;2022-10-31T07:21:43;20.48;;;13.68;;
9409;SDS011;4744;52.576;13.568;2022-10-31T07:24:09;14.52;;;11.23;;
9409;SDS011;4744;52.576;13.568;2022-10-31T07:26:37;18.63;;;14.55;;
9409;SDS011;4744;52.576;13.568;2022-10-31T07:29:04;22.20;;;15.60;;
9409;SDS011;4744;52.576;13.568;2022-10-31T07:31:31;17.38;;;14.23;;
9409;SDS011;4744;52.576;13.568;2022-10-31T07:33:58;19.98;;;15.15;;
9409;SDS011;4744;52.576;13.568;2022-10-31T07:36:24;19.80;;;15.60;;
9409;SDS011;4744;52.576;13.568;2022-10-31T07:38:51;20.30;;;14.38;;
9409;SDS011;4744;52.576;13.568;2022-10-31T07:41:18;19.95;;;14.88;;
9409;SDS011;4744;52.576;13.568;2022-10-31T07:43:46;19.58;;;15.73;;
9409;SDS011;4744;52.576;13.568;2022-10-31T07:46:13;19.48;;;14.60;;
9409;SDS011;4744;52.576;13.568;2022-10-31T07:48:39;15.93;;;13.45;;
9409;SDS011;4744;52.576;13.568;2022-10-31T07:51:06;24.00;;;14.68;;
9409;SDS011;4744;52.576;13.568;2022-10-31T07:53:33;19.48;;;15.00;;
9409;SDS011;4744;52.576;13.568;2022-10-31T07:56:00;15.30;;;13.65;;
9409;SDS011;4744;52.576;13.568;2022-10-31T07:58:26;17.77;;;14.02;;
9409;SDS011;4744;52.576;13.568;2022-10-31T08:00:54;20.02;;;14.80;;
9409;SDS011;4744;52.576;13.568;2022-10-31T08:03:23;17.25;;;14.48;;
9409;SDS011;4744;52.576;13.568;2022-10-31T08:05:50;19.88;;;15.30;;
9409;SDS011;4744;52.576;13.568;2022-10-31T08:08:16;18.75;;;14.18;;
9409;SDS011;4744;52.576;13.568;2022-10-31T08:10:43;20.63;;;14.27;;
9409;SDS011;4744;52.576;13.568;2022-10-31T08:13:11;15.98;;;13.73;;
9409;SDS011;4744;52.576;13.568;2022-10-31T08:15:39;17.88;;;13.90;;
9409;SDS011;4744;52.576;13.568;2022-10-31T08:18:10;18.02;;;14.68;;
9409;SDS011;4744;52.576;13.568;2022-10-31T08:20:38;20.95;;;13.98;;
9409;SDS011;4744;52.576;13.568;2022-10-31T08:23:05;19.67;;;14.45;;
9409;SDS011;4744;52.576;13.568;2022-10-31T08:25:33;21.40;;;14.98;;
9409;SDS011;4744;52.576;13.568;2022-10-31T08:28:00;19.80;;;14.90;;
9409;SDS011;4744;52.576;13.568;2022-10-31T08:30:28;16.80;;;14.65;;
9409;SDS011;4744;52.576;13.568;2022-10-31T08:32:58;16.02;;;14.32;;
9409;SDS011;4744;52.576;13.568;2022-10-31T08:35:27;18.50;;;14.70;;
9409;SDS011;4744;52.576;13.568;2022-10-31T08:37:54;16.67;;;14.82;;
9409;SDS011;4744;52.576;13.568;2022-10-31T08:40:21;21.17;;;14.93;;
9409;SDS011;4744;52.576;13.568;2022-10-31T08:42:54;21.90;;;15.57;;
9409;SDS011;4744;52.576;13.568;2022-10-31T08:45:22;16.48;;;13.10;;
9409;SDS011;4744;52.576;13.568;2022-10-31T08:47:49;21.95;;;16.33;;
9409;SDS011;4744;52.576;13.568;2022-10-31T08:50:16;18.85;;;15.07;;
9409;SDS011;4744;52.576;13.568;2022-10-31T08:52:44;21.27;;;14.90;;
9409;SDS011;4744;52.576;13.568;2022-10-31T08:55:11;21.83;;;15.77;;
9409;SDS011;4744;52.576;13.568;2022-10-31T08:57:38;18.98;;;15.55;;
9409;SDS011;4744;52.576;13.568;2022-10-31T09:00:05;22.98;;;15.15;;
9409;SDS011;4744;52.576;13.568;2022-10-31T09:02:33;18.80;;;14.32;;
9409;SDS011;4744;52.576;13.568;2022-10-31T09:04:59;15.02;;;12.35;;
9409;SDS011;4744;52.576;13.568;2022-10-31T09:07:26;15.48;;;12.82;;
9409;SDS011;4744;52.576;13.568;2022-10-31T09:09:54;16.30;;;12.65;;
9409;SDS011;4744;52.576;13.568;2022-10-31T09:12:21;18.50;;;13.93;;
9409;SDS011;4744;52.576;13.568;2022-10-31T09:14:49;20.20;;;12.55;;
9409;SDS011;4744;52.576;13.568;2022-10-31T09:17:16;17.10;;;13.38;;
9409;SDS011;4744;52.576;13.568;2022-10-31T09:19:42;17.65;;;12.73;;
9409;SDS011;4744;52.576;13.568;2022-10-31T09:22:09;16.88;;;13.02;;
9409;SDS011;4744;52.576;13.568;2022-10-31T09:24:36;16.20;;;12.43;;
9409;SDS011;4744;52.576;13.568;2022-10-31T09:27:04;21.25;;;14.27;;
9409;SDS011;4744;52.576;13.568;2022-10-31T09:29:31;14.05;;;12.20;;
9409;SDS011;4744;52.576;13.568;2022-10-31T09:31:58;17.30;;;13.68;;
9409;SDS011;4744;52.576;13.568;2022-10-31T09:34:25;21.77;;;14.05;;
9409;SDS011;4744;52.576;13.568;2022-10-31T09:36:52;17.90;;;13.45;;
9409;SDS011;4744;52.576;13.568;2022-10-31T09:39:19;15.52;;;12.23;;
9409;SDS011;4744;52.576;13.568;2022-10-31T09:41:53;16.63;;;12.02;;
9409;SDS011;4744;52.576;13.568;2022-10-31T09:44:37;19.02;;;14.52;;
9409;SDS011;4744;52.576;13.568;2022-10-31T09:47:11;18.23;;;14.15;;
9409;SDS011;4744;52.576;13.568;2022-10-31T09:49:50;16.77;;;11.45;;
9409;SDS011;4744;52.576;13.568;2022-10-31T09:52:26;19.65;;;13.80;;
9409;SDS011;4744;52.576;13.568;2022-10-31T09:54:57;21.10;;;14.63;;
9409;SDS011;4744;52.576;13.568;2022-10-31T09:57:30;20.08;;;15.15;;
9409;SDS011;4744;52.576;13.568;2022-10-31T09:59:59;18.23;;;14.15;;
9409;SDS011;4744;52.576;13.568;2022-10-31T10:02:30;20.05;;;14.40;;
9409;SDS011;4744;52.576;13.568;2022-10-31T10:05:03;17.80;;;13.52;;
9409;SDS011;4744;52.576;13.568;2022-10-31T10:07:35;13.45;;;11.45;;
9409;SDS011;4744;52.576;13.568;2022-10-31T10:10:12;15.60;;;13.40;;
9409;SDS011;4744;52.576;13.568;2022-10-31T10:12:45;26.00;;;16.27;;
9409;SDS011;4744;52.576;13.568;2022-10-31T10:15:32;20.55;;;14.88;;
9409;SDS011;4744;52.576;13.568;2022-10-31T10:18:14;24.40;;;16.33;;
9409;SDS011;4744;52.576;13.568;2022-10-31T10:20:52;20.90;;;13.95;;
9409;SDS011;4744;52.576;13.568;2022-10-31T10:23:34;22.40;;;15.45;;
9409;SDS011;4744;52.576;13.568;2022-10-31T10:26:13;16.67;;;12.40;;
9409;SDS011;4744;52.576;13.568;2022-10-31T10:28:45;19.00;;;14.10;;
9409;SDS011;4744;52.576;13.568;2022-10-31T10:31:15;17.30;;;13.70;;
9409;SDS011;4744;52.576;13.568;2022-10-31T10:33:47;21.23;;;15.35;;
9409;SDS011;4744;52.576;13.568;2022-10-31T10:36:26;22.23;;;15.15;;
9409;SDS011;4744;52.576;13.568;2022-10-31T10:38:57;18.67;;;14.00;;
9409;SDS011;4744;52.576;13.568;2022-10-31T10:41:27;18.00;;;14.15;;
9409;SDS011;4744;52.576;13.568;2022-10-31T10:43:59;19.45;;;15.80;;
9409;SDS011;4744;52.576;13.568;2022-10-31T10:46:27;18.83;;;12.63;;
9409;SDS011;4744;52.576;13.568;2022-10-31T10:49:18;13.15;;;11.27;;
9409;SDS011;4744;52.576;13.568;2022-10-31T10:51:50;23.67;;;15.02;;
9409;SDS011;4744;52.576;13.568;2022-10-31T10:54:38;20.05;;;14.82;;
9409;SDS011;4744;52.576;13.568;2022-10-31T10:57:16;16.38;;;13.65;;
9409;SDS011;4744;52.576;13.568;2022-10-31T11:00:00;15.88;;;13.05;;
9409;SDS011;4744;52.576;13.568;2022-10-31T11:02:43;23.17;;;15.18;;
9409;SDS011;4744;52.576;13.568;2022-10-31T11:05:13;23.35;;;16.77;;
9409;SDS011;4744;52.576;13.568;2022-10-31T11:07:46;25.67;;;16.48;;
9409;SDS011;4744;52.576;13.568;2022-10-31T11:10:13;23.70;;;15.75;;
9409;SDS011;4744;52.576;13.568;2022-10-31T11:12:42;21.10;;;14.65;;
9409;SDS011;4744;52.576;13.568;2022-10-31T11:15:18;18.52;;;14.27;;
9409;SDS011;4744;52.576;13.568;2022-10-31T11:17:48;24.52;;;14.55;;
9409;SDS011;4744;52.576;13.568;2022-10-31T11:20:23;15.82;;;12.82;;
9409;SDS011;4744;52.576;13.568;2022-10-31T11:23:04;17.60;;;13.40;;
9409;SDS011;4744;52.576;13.568;2022-10-31T11:25:47;18.33;;;15.52;;
9409;SDS011;4744;52.576;13.568;2022-10-31T11:28:16;16.17;;;13.75;;
9409;SDS011;4744;52.576;13.568;2022-10-31T11:30:45;15.75;;;12.35;;
9409;SDS011;4744;52.576;13.568;2022-10-31T11:33:16;17.23;;;13.45;;
9409;SDS011;4744;52.576;13.568;2022-10-31T11:35:46;22.48;;;15.20;;
9409;SDS011;4744;52.576;13.568;2022-10-31T11:38:15;22.48;;;15.93;;
9409;SDS011;4744;52.576;13.568;2022-10-31T11:40:52;19.48;;;14.68;;
9409;SDS011;4744;52.576;13.568;2022-10-31T11:43:21;20.50;;;16.27;;
9409;SDS011;4744;52.576;13.568;2022-10-31T11:45:51;24.45;;;16.33;;
9409;SDS011;4744;52.576;13.568;2022-10-31T11:48:18;23.48;;;16.55;;
9409;SDS011;4744;52.576;13.568;2022-10-31T11:50:49;20.73;;;16.08;;
9409;SDS011;4744;52.576;13.568;2022-10-31T11:53:18;16.58;;;14.27;;
9409;SDS011;4744;52.576;13.568;2022-10-31T11:55:58;16.60;;;12.75;;
9409;SDS011;4744;52.576;13.568;2022-10-31T11:58:29;15.77;;;12.18;;
9409;SDS011;4744;52.576;13.568;2022-10-31T12:00:57;25.98;;;15.50;;
9409;SDS011;4744;52.576;13.568;2022-10-31T12:03:31;22.95;;;16.15;;
9409;SDS011;4744;52.576;13.568;2022-10-31T12:06:07;19.83;;;13.75;;
9409;SDS011;4744;52.576;13.568;2022-10-31T12:08:38;21.80;;;16.23;;
9409;SDS011;4744;52.576;13.568;2022-10-31T12:11:09;20.65;;;15.80;;
9409;SDS011;4744;52.576;13.568;2022-10-31T12:13:51;20.23;;;16.85;;
9409;SDS011;4744;52.576;13.568;2022-10-31T12:16:33;20.55;;;15.50;;
9409;SDS011;4744;52.576;13.568;2022-10-31T12:19:06;14.77;;;12.05;;
9409;SDS011;4744;52.576;13.568;2022-10-31T12:21:53;21.17;;;15.63;;
9409;SDS011;4744;52.576;13.568;2022-10-31T12:24:45;23.70;;;16.90;;
9409;SDS011;4744;52.576;13.568;2022-10-31T12:27:30;21.40;;;15.55;;
9409;SDS011;4744;52.576;13.568;2022-10-31T12:30:11;19.27;;;14.93;;
9409;SDS011;4744;52.576;13.568;2022-10-31T12:32:51;18.27;;;14.07;;
9409;SDS011;4744;52.576;13.568;2022-10-31T12:35:32;14.75;;;11.77;;
9409;SDS011;4744;52.576;13.568;2022-10-31T12:38:11;24.90;;;16.00;;
9409;SDS011;4744;52.576;13.568;2022-10-31T12:41:12;20.95;;;15.52;;
9409;SDS011;4744;52.576;13.568;2022-10-31T12:43:46;16.17;;;12.65;;
9409;SDS011;4744;52.576;13.568;2022-10-31T12:46:22;17.58;;;14.20;;
9409;SDS011;4744;52.576;13.568;2022-10-31T12:49:03;15.55;;;12.73;;
9409;SDS011;4744;52.576;13.568;2022-10-31T12:51:55;22.00;;;16.33;;
9409;SDS011;4744;52.576;13.568;2022-10-31T12:57:22;20.73;;;15.02;;
9409;SDS011;4744;52.576;13.568;2022-10-31T12:59:56;15.60;;;12.85;;
9409;SDS011;4744;52.576;13.568;2022-10-31T13:02:29;26.25;;;16.50;;
9409;SDS011;4744;52.576;13.568;2022-10-31T13:05:00;17.02;;;14.63;;
9409;SDS011;4744;52.576;13.568;2022-10-31T13:07:32;19.80;;;14.27;;
9409;SDS011;4744;52.576;13.568;2022-10-31T13:10:05;20.00;;;14.57;;
9409;SDS011;4744;52.576;13.568;2022-10-31T13:12:36;19.55;;;15.02;;
9409;SDS011;4744;52.576;13.568;2022-10-31T13:15:05;20.13;;;15.98;;
9409;SDS011;4744;52.576;13.568;2022-10-31T13:17:43;21.85;;;15.57;;
9409;SDS011;4744;52.576;13.568;2022-10-31T13:20:19;18.15;;;15.38;;
9409;SDS011;4744;52.576;13.568;2022-10-31T13:22:51;18.42;;;12.38;;
9409;SDS011;4744;52.576;13.568;2022-10-31T13:25:21;22.48;;;14.98;;
9409;SDS011;4744;52.576;13.568;2022-10-31T13:27:52;25.35;;;17.30;;
9409;SDS011;4744;52.576;13.568;2022-10-31T13:30:22;18.90;;;14.63;;
9409;SDS011;4744;52.576;13.568;2022-10-31T13:32:52;12.65;;;10.10;;
9409;SDS011;4744;52.576;13.568;2022-10-31T13:35:26;12.75;;;10.88;;
9409;SDS011;4744;52.576;13.568;2022-10-31T13:38:01;15.35;;;10.77;;
9409;SDS011;4744;52.576;13.568;2022-10-31T13:40:38;21.35;;;14.00;;
9409;SDS011;4744;52.576;13.568;2022-10-31T13:43:14;18.77;;;13.05;;
9409;SDS011;4744;52.576;13.568;2022-10-31T13:45:49;21.38;;;15.18;;
9409;SDS011;4744;52.576;13.568;2022-10-31T13:48:19;18.77;;;14.80;;
9409;SDS011;4744;52.576;13.568;2022-10-31T13:51:00;17.50;;;14.10;;
9409;SDS011;4744;52.576;13.568;2022-10-31T13:53:39;17.50;;;13.32;;
9409;SDS011;4744;52.576;13.568;2022-10-31T13:56:13;13.88;;;10.95;;
9409;SDS011;4744;52.576;13.568;2022-10-31T13:58:54;13.68;;;11.30;;
9409;SDS011;4744;52.576;13.568;2022-10-31T14:01:27;10.52;;;9.25;;
9409;SDS011;4744;52.576;13.568;2022-10-31T14:03:56;17.10;;;12.45;;
9409;SDS011;4744;52.576;13.568;2022-10-31T14:06:39;14.20;;;10.30;;
9409;SDS011;4744;52.576;13.568;2022-10-31T14:09:20;13.98;;;11.60;;
9409;SDS011;4744;52.576;13.568;2022-10-31T14:11:50;10.40;;;9.38;;
9409;SDS011;4744;52.576;13.568;2022-10-31T14:14:18;10.55;;;9.45;;
9409;SDS011;4744;52.576;13.568;2022-10-31T14:16:52;9.45;;;8.27;;
9409;SDS011;4744;52.576;13.568;2022-10-31T14:19:21;10.15;;;8.98;;
9409;SDS011;4744;52.576;13.568;2022-10-31T14:21:50;9.95;;;8.88;;
9409;SDS011;4744;52.576;13.568;2022-10-31T14:24:30;9.40;;;8.50;;
9409;SDS011;4744;52.576;13.568;2022-10-31T14:27:00;9.73;;;8.65;;
9409;SDS011;4744;52.576;13.568;2022-10-31T14:29:29;10.30;;;9.15;;
9409;SDS011;4744;52.576;13.568;2022-10-31T14:32:01;10.13;;;8.18;;
9409;SDS011;4744;52.576;13.568;2022-10-31T14:34:36;10.00;;;7.85;;
9409;SDS011;4744;52.576;13.568;2022-10-31T14:40:07;13.07;;;10.88;;
9409;SDS011;4744;52.576;13.568;2022-10-31T14:42:49;13.80;;;10.00;;
9409;SDS011;4744;52.576;13.568;2022-10-31T14:45:34;11.30;;;9.63;;
9409;SDS011;4744;52.576;13.568;2022-10-31T14:48:17;9.82;;;8.82;;
9409;SDS011;4744;52.576;13.568;2022-10-31T14:51:10;9.48;;;8.48;;
9409;SDS011;4744;52.576;13.568;2022-10-31T14:53:43;10.07;;;9.07;;
9409;SDS011;4744;52.576;13.568;2022-10-31T14:56:14;11.48;;;9.35;;
9409;SDS011;4744;52.576;13.568;2022-10-31T14:58:46;10.32;;;9.27;;
9409;SDS011;4744;52.576;13.568;2022-10-31T15:01:21;12.70;;;8.70;;
9409;SDS011;4744;52.576;13.568;2022-10-31T15:03:50;10.07;;;8.98;;
9409;SDS011;4744;52.576;13.568;2022-10-31T15:06:18;9.88;;;8.70;;